Badin Air National Guard Sta, North Carolina
Current Conditions -  °F | °C
As of 5:15 PM on Thursday 18 Dec 2014 (Local Time) from KVUJ Reporting Station
Clear Clear  
Wind Chill: 47°   Ceiling: Unl
Heat Index: 47°   Visibility: 10mi
Dew Point: 30°   Wind: 0mph
Humidity: 52%   Direction: NA
Pressure: 30.14"   Gusts: NA
Location:  35.4059°N, 80.1167°W
Report Text: KVUJ 182215Z AUTO 00000KT 10SM CLR 08/M01 A3014 RMK AO2 T00831011
Loading
Personal Weather Stations






























Interactive Weather Map New forecast layout! Learn more

10-Day Weather Forecast

Advertisements
Track Severe Weather on mobile